Time;durP1;ratioP1;P1;durP2;ratioP2;P2;SDS_P1;SDS_P2;PMS_P1;PMS_P2;Temp;Humidity;BMP_temperature;BMP_pressure;BME280_temperature;BME280_humidity;BME280_pressure;Samples;Min_cycle;Max_cycle;Signal;HPM_P1;HPM_P2
2024/02/12 00:01:47;;;;;;;0.10;0.10;;;;;;;11.22;65.86;98247.66;4189217;33;35055;-85
2024/02/12 00:04:18;;;;;;;0.13;0.13;;;;;;;11.29;65.10;98256.84;4221144;33;37256;-85
2024/02/12 00:06:46;;;;;;;0.20;0.20;;;;;;;11.32;64.53;98257.59;4214751;33;35101;-85
2024/02/12 00:09:16;;;;;;;1.65;0.40;;;;;;;11.36;64.80;98248.50;4211614;33;34683;-85
2024/02/12 00:11:45;;;;;;;0.45;0.20;;;;;;;11.30;64.64;98252.41;4210455;33;34079;-85
2024/02/12 00:14:14;;;;;;;0.43;0.43;;;;;;;11.31;65.44;98258.53;4208565;33;34908;-85
2024/02/12 00:16:45;;;;;;;0.00;0.00;;;;;;;11.34;65.05;98256.50;4193242;33;34285;-84
2024/02/12 00:19:14;;;;;;;0.53;0.53;;;;;;;11.28;65.46;98262.25;4198885;33;33196;-84
2024/02/12 00:21:47;;;;;;;0.22;0.22;;;;;;;11.32;65.19;98260.22;4222949;33;33582;-83
2024/02/12 00:24:16;;;;;;;0.43;0.40;;;;;;;11.34;65.51;98267.06;4199789;33;34480;-83
2024/02/12 00:26:44;;;;;;;0.85;0.43;;;;;;;11.13;66.03;98266.81;4210806;33;33473;-83
2024/02/12 00:29:14;;;;;;;0.40;0.40;;;;;;;11.12;65.61;98265.13;4198291;33;34138;-83
2024/02/12 00:31:42;;;;;;;0.52;0.10;;;;;;;11.38;64.75;98275.62;4201451;33;32800;-84
2024/02/12 00:34:10;;;;;;;0.47;0.30;;;;;;;11.25;64.82;98273.00;4202182;33;33540;-84
2024/02/12 00:36:38;;;;;;;0.47;0.47;;;;;;;11.27;65.31;98276.41;4224731;33;34793;-84
2024/02/12 00:39:09;;;;;;;0.05;0.05;;;;;;;11.21;65.59;98266.28;4209408;33;33562;-84
2024/02/12 00:41:37;;;;;;;0.10;0.10;;;;;;;11.10;66.04;98274.94;4210376;33;34214;-84
2024/02/12 00:44:06;;;;;;;0.62;0.62;;;;;;;10.98;66.42;98276.66;4215604;33;34403;-84
2024/02/12 00:46:34;;;;;;;0.10;0.10;;;;;;;11.10;65.85;98274.94;4199745;33;33580;-83
2024/02/12 00:49:01;;;;;;;0.00;0.00;;;;;;;11.11;65.39;98278.41;4209706;33;32813;-83
2024/02/12 00:51:32;;;;;;;0.05;0.05;;;;;;;11.08;65.54;98279.50;4200760;33;34729;-83
2024/02/12 00:54:01;;;;;;;0.20;0.20;;;;;;;11.15;65.19;98275.47;4222852;33;33449;-83
2024/02/12 00:56:29;;;;;;;1.35;0.25;;;;;;;10.92;66.12;98285.00;4226703;33;34176;-84
2024/02/12 00:59:02;;;;;;;0.00;0.00;;;;;;;11.06;65.74;98286.66;4200241;33;34775;-84
2024/02/12 01:01:30;;;;;;;0.20;0.20;;;;;;;11.14;65.70;98283.50;4190919;33;32774;-84
2024/02/12 01:03:59;;;;;;;0.17;0.17;;;;;;;11.20;64.81;98281.28;4206830;33;34689;-84
2024/02/12 01:06:28;;;;;;;3.40;0.20;;;;;;;10.89;66.40;98282.56;4214543;33;35241;-84
2024/02/12 01:08:57;;;;;;;0.32;0.32;;;;;;;11.05;66.09;98281.50;4201600;33;33032;-84
2024/02/12 01:11:28;;;;;;;0.10;0.10;;;;;;;11.18;65.46;98285.81;4214436;33;34987;-84
2024/02/12 01:13:56;;;;;;;0.00;0.00;;;;;;;11.25;64.90;98278.28;4212616;33;33500;-84
2024/02/12 01:16:24;;;;;;;0.00;0.00;;;;;;;11.24;64.83;98284.53;4221169;33;32938;-84
2024/02/12 01:18:53;;;;;;;0.25;0.25;;;;;;;11.25;65.29;98288.88;4214749;33;33906;-84
2024/02/12 01:21:23;;;;;;;0.45;0.45;;;;;;;11.26;65.09;98290.59;4227000;33;33970;-84
2024/02/12 01:23:51;;;;;;;1.00;0.88;;;;;;;11.36;64.85;98286.31;4206640;33;33911;-84
2024/02/12 01:26:19;;;;;;;0.20;0.20;;;;;;;11.39;64.34;98291.38;4212317;33;33947;-84
2024/02/12 01:28:47;;;;;;;0.30;0.30;;;;;;;11.36;64.56;98286.31;4203618;33;34364;-83
2024/02/12 01:31:18;;;;;;;0.20;0.20;;;;;;;11.37;65.00;98292.47;4214117;33;32735;-86
2024/02/12 01:33:47;;;;;;;0.00;0.00;;;;;;;11.47;64.59;98286.41;4212553;33;34847;-86
2024/02/12 01:36:16;;;;;;;1.87;0.35;;;;;;;11.36;64.66;98285.50;4227364;33;33346;-86
2024/02/12 01:38:44;;;;;;;0.00;0.00;;;;;;;11.34;64.85;98284.72;4213315;33;33219;-85
2024/02/12 01:41:15;;;;;;;0.28;0.25;;;;;;;11.22;65.42;98283.81;4195527;33;33236;-85
2024/02/12 01:43:46;;;;;;;0.13;0.13;;;;;;;11.31;64.92;98279.69;4224769;33;34224;-85
2024/02/12 01:46:15;;;;;;;0.08;0.08;;;;;;;11.17;65.85;98280.66;4201528;33;33234;-85
2024/02/12 01:48:45;;;;;;;0.00;0.00;;;;;;;11.38;65.29;98284.41;4204087;33;33895;-85
2024/02/12 01:51:33;;;;;;;0.13;0.13;;;;;;;11.45;65.02;98285.69;4213105;33;33444;-84
2024/02/12 01:54:17;;;;;;;0.00;0.00;;;;;;;11.52;64.78;98281.62;4222947;33;33422;-84
2024/02/12 01:56:59;;;;;;;0.00;0.00;;;;;;;11.40;65.41;98277.22;4191368;33;33388;-84
2024/02/12 01:59:34;;;;;;;0.22;0.22;;;;;;;11.32;65.69;98279.56;4225107;33;33417;-84
2024/02/12 02:02:21;;;;;;;0.32;0.32;;;;;;;11.38;65.02;98278.28;4223076;33;34219;-84
2024/02/12 02:05:04;;;;;;;0.32;0.32;;;;;;;11.33;65.04;98264.56;4215474;33;32524;-84
2024/02/12 02:07:34;;;;;;;;;;;;;;;11.26;65.52;98280.84;4211671;33;35043;-84
2024/02/12 02:10:04;;;;;;;0.00;0.00;;;;;;;11.39;65.18;98274.69;4224101;33;32655;-83
2024/02/12 02:12:33;;;;;;;0.10;0.10;;;;;;;11.34;65.38;98272.38;4204407;33;32944;-83
2024/02/12 02:15:16;;;;;;;0.55;0.40;;;;;;;11.18;65.85;98272.63;4212843;33;33924;-84
2024/02/12 02:17:44;;;;;;;0.03;0.03;;;;;;;11.36;65.07;98278.41;4200132;33;33577;-83
2024/02/12 02:20:12;;;;;;;0.00;0.00;;;;;;;11.33;64.89;98272.47;4221815;33;32274;-83
2024/02/12 02:22:40;;;;;;;0.35;0.35;;;;;;;11.20;65.42;98272.50;4200777;33;35097;-83
2024/02/12 02:25:11;;;;;;;2.03;0.68;;;;;;;11.23;65.63;98275.78;4214460;33;34031;-83
2024/02/12 02:27:39;;;;;;;0.13;0.13;;;;;;;11.32;65.44;98276.09;4213727;33;33765;-83
2024/02/12 02:30:10;;;;;;;0.60;0.60;;;;;;;11.38;64.71;98268.56;4212979;33;33264;-83
2024/02/12 02:32:40;;;;;;;0.10;0.00;;;;;;;11.41;65.02;98271.00;4203801;33;33237;-83
2024/02/12 02:35:08;;;;;;;0.10;0.10;;;;;;;11.43;64.95;98274.34;4198559;33;34200;-83
2024/02/12 02:37:36;;;;;;;0.88;0.80;;;;;;;11.40;64.94;98271.94;4213597;33;35048;-83
2024/02/12 02:40:04;;;;;;;1.35;0.55;;;;;;;11.39;64.31;98275.53;4222047;33;33525;-83
2024/02/12 02:42:33;;;;;;;0.10;0.10;;;;;;;11.45;64.23;98275.09;4221969;33;33846;-83
2024/02/12 02:45:02;;;;;;;2.25;0.52;;;;;;;11.35;64.38;98274.06;4223498;33;32839;-83
2024/02/12 02:47:32;;;;;;;0.40;0.40;;;;;;;11.29;64.57;98275.31;4222812;33;34808;-83
2024/02/12 02:50:00;;;;;;;0.20;0.20;;;;;;;11.34;64.50;98277.66;4223990;33;33661;-84
2024/02/12 02:52:29;;;;;;;0.05;0.05;;;;;;;11.19;65.13;98273.44;4223536;33;33316;-83
2024/02/12 02:54:57;;;;;;;0.22;0.22;;;;;;;11.26;65.04;98280.00;4211032;33;33690;-84
2024/02/12 02:57:24;;;;;;;0.35;0.35;;;;;;;11.11;65.50;98281.94;4213502;33;33435;-83
2024/02/12 02:59:53;;;;;;;0.45;0.32;;;;;;;11.32;64.97;98284.84;4213325;33;32669;-83
2024/02/12 03:02:21;;;;;;;0.10;0.10;;;;;;;11.28;65.16;98288.66;4211838;33;34313;-83
2024/02/12 03:04:48;;;;;;;1.30;1.05;;;;;;;11.35;64.92;98284.66;4203621;33;33575;-83
2024/02/12 03:07:17;;;;;;;0.05;0.05;;;;;;;11.14;65.86;98291.44;4224723;33;34077;-83
2024/02/12 03:09:44;;;;;;;0.03;0.03;;;;;;;11.22;65.84;98289.94;4225296;33;34226;-83
2024/02/12 03:12:13;;;;;;;0.00;0.00;;;;;;;11.11;65.87;98296.91;4222419;33;33810;-83
2024/02/12 03:14:41;;;;;;;0.35;0.35;;;;;;;11.15;66.08;98301.03;4222132;33;33043;-83
2024/02/12 03:17:09;;;;;;;0.20;0.20;;;;;;;11.18;66.02;98300.84;4212115;33;33799;-83
2024/02/12 03:19:39;;;;;;;0.45;0.20;;;;;;;11.21;65.99;98311.19;4199802;33;31963;-83
2024/02/12 03:22:08;;;;;;;0.20;0.20;;;;;;;11.19;66.06;98310.44;4212306;33;33217;-83
2024/02/12 03:24:36;;;;;;;0.30;0.20;;;;;;;11.25;65.85;98310.88;4203321;33;34758;-83
2024/02/12 03:27:04;;;;;;;0.55;0.55;;;;;;;11.26;66.07;98309.06;4210145;33;34046;-84
2024/02/12 03:29:32;;;;;;;5.47;0.88;;;;;;;11.23;66.01;98314.56;4212774;33;33217;-83
2024/02/12 03:32:00;;;;;;;0.08;0.08;;;;;;;11.30;65.76;98315.84;4223269;33;32851;-83
2024/02/12 03:34:31;;;;;;;0.17;0.17;;;;;;;11.13;66.14;98310.88;4224969;33;33629;-83
2024/02/12 03:36:58;;;;;;;0.20;0.20;;;;;;;11.26;66.26;98320.47;4211874;33;34572;-83
2024/02/12 03:39:26;;;;;;;0.50;0.50;;;;;;;11.24;66.17;98317.09;4209186;33;32077;-83
2024/02/12 03:41:54;;;;;;;0.37;0.28;;;;;;;11.27;66.07;98321.31;4212075;33;35005;-83
2024/02/12 03:44:23;;;;;;;0.25;0.22;;;;;;;11.15;66.54;98314.25;4210434;33;32977;-83
2024/02/12 03:46:52;;;;;;;0.20;0.20;;;;;;;11.24;65.96;98316.25;4211732;33;32169;-83
2024/02/12 04:00:52;;;;;;;0.30;0.30;;;;;;;11.26;65.92;98323.13;4219834;33;33096;-83
2024/02/12 04:03:30;;;;;;;0.17;0.17;;;;;;;11.21;66.33;98324.41;4217355;33;33609;-83
2024/02/12 04:05:59;;;;;;;0.10;0.10;;;;;;;11.19;66.21;98324.50;4212479;33;33385;-83
2024/02/12 04:08:28;;;;;;;0.10;0.10;;;;;;;11.27;65.82;98321.31;4223711;33;32788;-83
2024/02/12 04:10:56;;;;;;;0.10;0.10;;;;;;;11.17;66.20;98326.41;4211999;34;34050;-83
2024/02/12 04:13:25;;;;;;;0.55;0.55;;;;;;;11.22;65.80;98326.94;4202893;33;33665;-83
2024/02/12 04:15:54;;;;;;;0.30;0.30;;;;;;;11.31;65.83;98327.25;4212768;33;33173;-84
2024/02/12 04:18:24;;;;;;;0.00;0.00;;;;;;;11.27;65.73;98329.25;4211222;33;34086;-83
2024/02/12 04:20:52;;;;;;;0.32;0.32;;;;;;;11.19;66.20;98326.28;4210210;33;33637;-83
2024/02/12 04:23:22;;;;;;;0.32;0.30;;;;;;;11.23;66.00;98335.69;4222195;33;32293;-83
2024/02/12 04:25:50;;;;;;;0.68;0.68;;;;;;;11.17;66.33;98330.84;4202370;33;32658;-83
2024/02/12 04:28:20;;;;;;;0.55;0.47;;;;;;;11.23;65.85;98322.50;4204198;33;34265;-83
2024/02/12 04:30:48;;;;;;;0.10;0.10;;;;;;;11.31;65.85;98325.44;4212281;33;32977;-83
2024/02/12 04:33:16;;;;;;;0.40;0.37;;;;;;;11.28;65.73;98331.78;4214636;33;33969;-83
2024/02/12 04:35:45;;;;;;;0.30;0.30;;;;;;;11.17;66.29;98329.06;4235921;33;34553;-82
2024/02/12 04:38:13;;;;;;;0.10;0.10;;;;;;;11.15;66.43;98325.66;4202132;33;33977;-82
2024/02/12 04:40:40;;;;;;;0.08;0.08;;;;;;;11.05;66.42;98329.88;4200665;33;33638;-82
2024/02/12 04:43:09;;;;;;;0.35;0.35;;;;;;;11.11;66.65;98329.47;4214009;33;34073;-82
2024/02/12 04:45:38;;;;;;;1.40;1.12;;;;;;;11.05;66.63;98324.59;4214230;33;33546;-83
2024/02/12 04:48:11;;;;;;;0.32;0.30;;;;;;;11.11;66.29;98329.47;4196707;33;33683;-83
2024/02/12 04:50:39;;;;;;;0.88;0.85;;;;;;;11.08;66.83;98323.56;4189791;33;34240;-84
2024/02/12 04:53:07;;;;;;;0.05;0.05;;;;;;;11.22;65.86;98326.94;4223557;33;34745;-83
2024/02/12 04:55:35;;;;;;;0.35;0.35;;;;;;;11.18;66.06;98327.25;4207483;33;33901;-82
2024/02/12 04:58:04;;;;;;;0.50;0.40;;;;;;;11.19;66.19;98324.50;4199231;33;33393;-83
2024/02/12 05:00:32;;;;;;;0.40;0.40;;;;;;;11.21;66.06;98330.53;4211014;34;33939;-82
2024/02/12 05:03:00;;;;;;;0.47;0.47;;;;;;;11.28;65.58;98323.84;4202009;33;32324;-83
2024/02/12 05:05:27;;;;;;;0.35;0.22;;;;;;;11.16;66.49;98329.16;4202122;33;33639;-82
2024/02/12 05:07:56;;;;;;;0.28;0.28;;;;;;;11.24;65.99;98326.81;4212656;33;31502;-84
2024/02/12 05:10:23;;;;;;;0.55;0.55;;;;;;;11.08;66.35;98319.13;4203256;33;33430;-84
2024/02/12 05:12:57;;;;;;;1.12;0.73;;;;;;;11.10;66.56;98326.94;4215564;33;33925;-83
2024/02/12 05:15:26;;;;;;;0.70;0.62;;;;;;;11.18;66.33;98324.59;4200547;33;33593;-83
2024/02/12 05:23:35;;;;;;;0.62;0.62;;;;;;;11.14;66.14;98323.97;4219668;33;33509;-83
2024/02/12 05:26:04;;;;;;;2.00;0.85;;;;;;;11.17;65.78;98322.94;4218541;33;34328;-83
2024/02/12 05:28:33;;;;;;;0.08;0.08;;;;;;;11.18;66.24;98329.91;4212602;33;34187;-83
2024/02/12 05:31:01;;;;;;;2.53;1.02;;;;;;;11.22;66.15;98331.37;4199990;33;32912;-83
2024/02/12 05:33:31;;;;;;;2.45;1.45;;;;;;;11.22;65.72;98326.94;4213637;33;34285;-83
2024/02/12 05:35:59;;;;;;;1.98;1.17;;;;;;;11.17;66.24;98325.56;4198679;33;32976;-83
2024/02/12 05:38:27;;;;;;;0.55;0.45;;;;;;;11.08;65.49;98334.13;4213427;33;33260;-83
2024/02/12 05:40:55;;;;;;;0.10;0.10;;;;;;;11.13;65.40;98332.00;4213991;33;33987;-83
2024/02/12 05:43:23;;;;;;;0.30;0.30;;;;;;;11.21;65.19;98332.34;4202402;33;32560;-83
2024/02/12 05:45:50;;;;;;;0.50;0.37;;;;;;;10.99;66.37;98330.31;4213572;33;33403;-81
2024/02/12 05:48:18;;;;;;;0.45;0.45;;;;;;;11.10;65.52;98340.13;4224190;33;32960;-81
2024/02/12 05:50:48;;;;;;;0.15;0.15;;;;;;;11.13;65.51;98342.56;4226502;33;33447;-83
2024/02/12 05:53:16;;;;;;;1.05;1.05;;;;;;;10.95;65.24;98348.16;4202806;33;33495;-83
2024/02/12 05:55:44;;;;;;;0.20;0.20;;;;;;;10.93;66.09;98347.44;4213437;33;33828;-83
2024/02/12 05:58:12;;;;;;;0.00;0.00;;;;;;;11.03;65.16;98355.56;4221587;33;33343;-83
2024/02/12 06:00:41;;;;;;;0.43;0.43;;;;;;;11.08;65.09;98349.97;4203344;33;33945;-83
2024/02/12 06:03:09;;;;;;;0.28;0.28;;;;;;;10.95;65.91;98357.88;4199189;33;33572;-83
2024/02/12 06:05:37;;;;;;;0.75;0.47;;;;;;;11.07;65.54;98361.50;4225400;33;33454;-83
2024/02/12 06:08:05;;;;;;;0.10;0.10;;;;;;;11.18;64.56;98359.78;4202892;33;34102;-83
2024/02/12 06:10:34;;;;;;;1.65;0.98;;;;;;;11.01;65.43;98366.25;4208950;33;33341;-84
2024/02/12 06:13:04;;;;;;;0.10;0.10;;;;;;;11.02;65.47;98369.75;4221865;33;32558;-84
2024/02/12 06:15:33;;;;;;;0.77;0.77;;;;;;;11.07;65.38;98364.97;4201525;33;35053;-84
2024/02/12 06:18:02;;;;;;;0.10;0.10;;;;;;;11.11;65.38;98371.75;4190128;33;34228;-84
2024/02/12 06:20:33;;;;;;;0.80;0.80;;;;;;;11.13;65.24;98374.28;4194739;33;33752;-84
2024/02/12 06:23:02;;;;;;;0.20;0.13;;;;;;;11.16;65.32;98379.34;4222940;33;34090;-83
2024/02/12 06:25:30;;;;;;;0.17;0.17;;;;;;;11.22;65.14;98373.66;4211577;33;33890;-82
2024/02/12 06:27:58;;;;;;;0.95;0.80;;;;;;;11.29;64.86;98385.47;4222176;33;34120;-82
2024/02/12 06:30:26;;;;;;;3.30;0.43;;;;;;;11.26;64.98;98380.41;4203086;33;33916;-83
2024/02/12 06:32:53;;;;;;;0.45;0.45;;;;;;;11.26;65.33;98378.63;4200826;33;32895;-82
2024/02/12 06:35:23;;;;;;;0.55;0.55;;;;;;;11.28;65.03;98389.06;4226958;33;33618;-82
2024/02/12 06:37:53;;;;;;;0.77;0.77;;;;;;;11.16;65.48;98384.66;4203493;33;35439;-82
2024/02/12 06:40:21;;;;;;;0.28;0.28;;;;;;;11.23;65.12;98386.75;4204281;33;33354;-82
2024/02/12 06:42:49;;;;;;;2.05;1.90;;;;;;;11.19;65.16;98384.41;4211216;33;32464;-82
2024/02/12 06:45:17;;;;;;;0.20;0.15;;;;;;;11.30;64.64;98384.53;4215680;33;34489;-82
2024/02/12 06:47:46;;;;;;;0.93;0.62;;;;;;;11.15;65.57;98382.94;4190538;33;35070;-82
2024/02/12 06:50:14;;;;;;;1.45;1.17;;;;;;;11.18;65.01;98393.28;4226707;33;33363;-81
2024/02/12 06:53:03;;;;;;;1.98;0.65;;;;;;;11.25;64.18;98387.50;4205478;33;33197;-82
2024/02/12 06:55:31;;;;;;;1.08;0.70;;;;;;;11.14;64.81;98391.81;4217554;33;33617;-82
2024/02/12 06:58:00;;;;;;;4.90;1.85;;;;;;;11.06;65.01;98399.41;4225510;33;34058;-82
2024/02/12 07:00:28;;;;;;;1.55;1.30;;;;;;;11.21;64.70;98401.03;4211561;33;31847;-82
2024/02/12 07:02:56;;;;;;;0.20;0.20;;;;;;;11.18;64.79;98398.59;4236648;33;33223;-82
2024/02/12 07:05:25;;;;;;;3.25;1.75;;;;;;;11.18;65.30;98406.50;4211128;33;33768;-82
2024/02/12 07:07:55;;;;;;;4.57;2.55;;;;;;;11.41;64.22;98408.41;4220758;33;33519;-80
2024/02/12 07:10:23;;;;;;;0.95;0.93;;;;;;;11.35;64.52;98413.28;4222885;33;32506;-80
2024/02/12 07:12:51;;;;;;;1.58;1.15;;;;;;;11.37;64.18;98417.50;4224245;33;33803;-80
2024/02/12 07:15:19;;;;;;;2.40;1.95;;;;;;;11.43;64.25;98413.59;4206454;33;33789;-80
2024/02/12 07:17:47;;;;;;;1.48;1.40;;;;;;;11.49;63.92;98415.81;4224365;33;34352;-80
2024/02/12 07:20:16;;;;;;;0.13;0.13;;;;;;;11.29;64.39;98417.19;4190377;33;33774;-81
2024/02/12 07:22:44;;;;;;;0.70;0.32;;;;;;;11.17;64.89;98423.31;4204875;33;33069;-81
2024/02/12 07:25:18;;;;;;;0.75;0.75;;;;;;;11.14;65.07;98423.50;4226937;33;34488;-81
2024/02/12 07:27:51;;;;;;;0.68;0.68;;;;;;;11.15;65.12;98425.19;4204082;33;33430;-81
2024/02/12 07:30:21;;;;;;;0.30;0.30;;;;;;;11.14;65.18;98428.78;4216811;33;33679;-81
2024/02/12 07:32:52;;;;;;;0.37;0.37;;;;;;;11.12;65.38;98425.44;4212648;33;33036;-82
2024/02/12 07:35:20;;;;;;;0.45;0.13;;;;;;;11.19;64.61;98431.97;4202707;33;33568;-81
2024/02/12 07:37:49;;;;;;;0.68;0.68;;;;;;;10.89;65.67;98427.81;4222001;33;33805;-80
2024/02/12 07:40:16;;;;;;;0.70;0.70;;;;;;;10.97;65.50;98425.50;4214304;33;32535;-81
2024/02/12 07:42:45;;;;;;;3.62;1.55;;;;;;;11.16;64.81;98433.03;4203502;33;33726;-81
2024/02/12 07:45:13;;;;;;;1.12;0.82;;;;;;;11.22;64.19;98429.13;4199908;33;32980;-81
2024/02/12 07:47:43;;;;;;;0.32;0.32;;;;;;;11.23;64.50;98428.16;4225993;33;33541;-81
2024/02/12 07:50:13;;;;;;;1.02;0.82;;;;;;;11.12;65.20;98438.63;4216690;33;34417;-81
2024/02/12 07:52:41;;;;;;;0.17;0.17;;;;;;;11.11;65.07;98444.84;4220089;33;34671;-81
2024/02/12 07:55:10;;;;;;;0.62;0.62;;;;;;;11.06;65.07;98441.66;4222638;33;33908;-81
2024/02/12 07:57:49;;;;;;;1.45;0.75;;;;;;;11.16;65.12;98442.75;4224987;33;32218;-81
2024/02/12 08:00:18;;;;;;;0.52;0.40;;;;;;;11.09;64.71;98446.75;4212017;33;31596;-80
2024/02/12 08:02:46;;;;;;;2.62;1.08;;;;;;;11.03;65.04;98443.59;4200796;33;31962;-81
2024/02/12 08:05:15;;;;;;;1.92;0.70;;;;;;;11.26;64.30;98451.75;4202753;33;33820;-80
2024/02/12 08:07:43;;;;;;;1.40;1.12;;;;;;;11.12;64.67;98452.69;4193921;33;34498;-81
2024/02/12 08:10:30;;;;;;;0.37;0.37;;;;;;;11.16;65.20;98453.34;4204070;33;33585;-81
2024/02/12 08:12:57;;;;;;;1.05;0.95;;;;;;;11.26;64.90;98454.41;4210123;33;34274;-81
2024/02/12 08:15:25;;;;;;;1.08;0.47;;;;;;;11.16;65.58;98458.62;4216907;33;34018;-81
2024/02/12 08:18:13;;;;;;;0.25;0.25;;;;;;;11.28;64.98;98460.41;4215481;33;33541;-80
2024/02/12 08:20:41;;;;;;;0.30;0.30;;;;;;;11.25;65.47;98455.31;4213912;33;33977;-80
2024/02/12 08:23:09;;;;;;;0.65;0.65;;;;;;;11.31;65.10;98464.66;4202075;33;32722;-80
2024/02/12 08:25:38;;;;;;;0.73;0.55;;;;;;;11.29;65.11;98470.88;4201037;33;32968;-80
2024/02/12 08:28:07;;;;;;;0.10;0.10;;;;;;;11.37;64.77;98465.06;4202183;33;34237;-81
2024/02/12 08:30:35;;;;;;;2.40;0.85;;;;;;;11.30;65.10;98466.47;4214189;33;33880;-81
2024/02/12 08:33:03;;;;;;;2.60;1.83;;;;;;;11.41;64.55;98468.37;4212870;33;34633;-81
2024/02/12 08:35:32;;;;;;;0.75;0.70;;;;;;;11.49;64.38;98464.25;4199253;33;33402;-80
2024/02/12 08:38:09;;;;;;;1.77;1.65;;;;;;;11.37;65.18;98473.00;4214986;33;34130;-81
2024/02/12 08:40:37;;;;;;;0.93;0.82;;;;;;;11.43;65.13;98477.88;4211972;33;33777;-81
2024/02/12 08:43:05;;;;;;;3.55;2.62;;;;;;;11.42;65.35;98472.69;4213918;33;31601;-80
2024/02/12 08:45:33;;;;;;;0.85;0.85;;;;;;;11.47;65.20;98479.34;4204258;33;33756;-81
2024/02/12 08:48:06;;;;;;;0.57;0.57;;;;;;;11.62;64.64;98471.31;4227429;33;33495;-80
2024/02/12 08:50:36;;;;;;;2.25;0.98;;;;;;;11.54;64.80;98466.56;4214432;33;33063;-81
2024/02/12 08:53:04;;;;;;;0.75;0.75;;;;;;;11.49;64.84;98474.81;4199603;33;34077;-81
2024/02/12 08:55:31;;;;;;;0.20;0.20;;;;;;;11.48;65.12;98482.84;4224930;33;36307;-81
2024/02/12 08:57:59;;;;;;;0.95;0.80;;;;;;;11.55;65.15;98481.47;4215510;33;34180;-81
2024/02/12 09:00:27;;;;;;;0.65;0.65;;;;;;;11.65;64.61;98484.34;4224981;33;32694;-81
2024/02/12 09:03:08;;;;;;;2.53;0.52;;;;;;;11.79;64.22;98478.94;4217651;33;33663;-81
2024/02/12 09:05:40;;;;;;;0.40;0.40;;;;;;;11.71;64.64;98481.25;4225888;33;32389;-81
2024/02/12 09:08:08;;;;;;;0.55;0.55;;;;;;;11.75;64.46;98488.03;4203471;33;34606;-81
2024/02/12 09:10:36;;;;;;;0.82;0.82;;;;;;;11.58;64.90;98486.53;4219370;33;33681;-81
2024/02/12 09:13:05;;;;;;;0.30;0.30;;;;;;;11.72;64.22;98488.22;4202222;33;34404;-81
2024/02/12 09:15:33;;;;;;;1.58;1.05;;;;;;;11.90;63.68;98492.28;4203176;33;33977;-80
2024/02/12 09:18:00;;;;;;;2.08;0.88;;;;;;;11.90;64.12;98496.72;4202335;33;34736;-81
2024/02/12 09:20:29;;;;;;;0.88;0.85;;;;;;;11.90;64.49;98500.22;4201654;33;34126;-81
2024/02/12 09:22:58;;;;;;;0.60;0.60;;;;;;;11.85;64.58;98499.69;4213174;33;33582;-81
2024/02/12 09:25:27;;;;;;;1.23;1.05;;;;;;;12.02;64.28;98506.47;4224546;33;34267;-81
2024/02/12 09:27:55;;;;;;;0.45;0.43;;;;;;;11.82;64.51;98502.56;4205441;33;34815;-81
2024/02/12 09:30:26;;;;;;;0.47;0.25;;;;;;;12.01;63.73;98507.37;4195209;33;32194;-80
2024/02/12 09:33:10;;;;;;;0.62;0.62;;;;;;;11.99;64.37;98510.16;4202042;33;33803;-80
2024/02/12 09:35:47;;;;;;;0.80;0.80;;;;;;;12.02;64.25;98509.94;4203625;33;32927;-80
2024/02/12 09:38:20;;;;;;;0.68;0.68;;;;;;;12.09;64.03;98517.44;4202919;33;34073;-80
2024/02/12 09:40:57;;;;;;;0.30;0.30;;;;;;;12.12;64.17;98520.72;4207664;33;33116;-80
2024/02/12 09:43:26;;;;;;;0.22;0.22;;;;;;;12.13;64.30;98518.94;4222113;33;33728;-81
2024/02/12 09:45:57;;;;;;;0.20;0.20;;;;;;;12.29;64.03;98527.47;4202136;33;33509;-81
2024/02/12 09:48:25;;;;;;;0.55;0.55;;;;;;;12.34;63.05;98525.34;4225878;33;34106;-81
2024/02/12 09:50:53;;;;;;;0.00;0.00;;;;;;;12.45;62.88;98530.72;4216034;33;33384;-82
2024/02/12 09:53:23;;;;;;;0.32;0.32;;;;;;;12.37;63.03;98522.47;4227994;33;32692;-80
2024/02/12 09:55:52;;;;;;;0.57;0.57;;;;;;;12.29;62.45;98530.09;4221878;33;34576;-80
2024/02/12 09:58:19;;;;;;;0.10;0.10;;;;;;;12.36;62.70;98526.09;4235203;33;34125;-80
2024/02/12 10:00:47;;;;;;;0.17;0.17;;;;;;;12.45;62.68;98541.31;4203822;33;31988;-81
2024/02/12 10:03:36;;;;;;;0.05;0.03;;;;;;;12.54;62.10;98535.38;4214713;33;33477;-80
2024/02/12 10:06:24;;;;;;;0.60;0.60;;;;;;;12.60;62.07;98536.72;4198027;33;32463;-80
2024/02/12 10:09:13;;;;;;;0.30;0.30;;;;;;;12.46;63.49;98537.72;4225949;33;33696;-80
2024/02/12 10:12:07;;;;;;;0.45;0.45;;;;;;;12.60;63.14;98538.53;4213923;33;33038;-80
2024/02/12 10:14:55;;;;;;;0.00;0.00;;;;;;;12.80;62.91;98537.91;4206571;33;33139;-80
2024/02/12 10:17:46;;;;;;;0.37;0.37;;;;;;;12.75;62.93;98540.06;4226533;33;34717;-80
2024/02/12 10:20:34;;;;;;;0.00;0.00;;;;;;;12.88;62.30;98535.56;4214576;33;32973;-80
2024/02/12 10:23:22;;;;;;;0.40;0.40;;;;;;;12.92;60.96;98539.69;4212858;33;32781;-80
2024/02/12 10:26:10;;;;;;;0.20;0.10;;;;;;;12.94;61.76;98543.06;4225438;33;33801;-81
2024/02/12 10:28:58;;;;;;;0.73;0.73;;;;;;;12.98;61.99;98544.53;4205678;33;32996;-80
2024/02/12 10:31:46;;;;;;;0.28;0.28;;;;;;;13.17;60.82;98545.81;4206931;33;35005;-80
2024/02/12 10:34:37;;;;;;;0.57;0.55;;;;;;;13.01;61.12;98544.31;4215670;33;33906;-80
2024/02/12 10:37:26;;;;;;;4.82;0.75;;;;;;;13.17;60.52;98540.53;4205306;33;34698;-81
2024/02/12 10:40:16;;;;;;;0.80;0.80;;;;;;;13.24;60.49;98541.78;4215393;33;34378;-80
2024/02/12 10:43:05;;;;;;;0.00;0.00;;;;;;;13.27;59.67;98537.09;4199263;33;34158;-80
2024/02/12 10:45:53;;;;;;;0.73;0.45;;;;;;;13.05;60.35;98539.59;4204967;33;33070;-80
2024/02/12 10:48:44;;;;;;;0.00;0.00;;;;;;;13.24;59.87;98539.13;4201279;33;33131;-80
2024/02/12 10:51:33;;;;;;;0.35;0.35;;;;;;;13.42;59.48;98537.75;4206607;33;32926;-80
2024/02/12 10:54:24;;;;;;;0.22;0.22;;;;;;;13.46;58.90;98533.06;4196184;33;33309;-81
2024/02/12 10:56:52;;;;;;;2.37;0.65;;;;;;;13.22;58.95;98543.72;4226449;33;33572;-80
2024/02/12 10:59:20;;;;;;;0.50;0.50;;;;;;;13.15;59.28;98535.34;4214799;33;33622;-81
2024/02/12 11:01:50;;;;;;;0.28;0.28;;;;;;;13.40;58.54;98529.06;4214211;33;33971;-80
2024/02/12 11:04:18;;;;;;;0.10;0.10;;;;;;;13.47;58.22;98524.97;4207375;33;33135;-80
2024/02/12 11:06:47;;;;;;;0.55;0.20;;;;;;;13.25;58.40;98523.13;4225368;33;32102;-80
2024/02/12 11:09:15;;;;;;;0.13;0.13;;;;;;;13.18;57.67;98523.66;4218110;33;34561;-80
2024/02/12 11:11:46;;;;;;;0.70;0.43;;;;;;;13.02;58.44;98530.09;4202951;33;33241;-80
2024/02/12 11:14:16;;;;;;;1.12;0.62;;;;;;;13.10;58.23;98515.41;4215132;33;33613;-80
2024/02/12 11:16:49;;;;;;;0.30;0.30;;;;;;;13.19;58.69;98520.03;4214464;33;33266;-81
2024/02/12 11:19:17;;;;;;;1.00;0.90;;;;;;;13.12;59.17;98511.72;4201428;33;33548;-80
2024/02/12 11:21:55;;;;;;;0.00;0.00;;;;;;;13.01;59.36;98515.16;4203286;33;33687;-81
2024/02/12 11:24:23;;;;;;;0.13;0.13;;;;;;;13.29;58.65;98508.69;4226955;33;34242;-80
2024/02/12 11:26:52;;;;;;;0.75;0.30;;;;;;;13.10;59.09;98507.47;4213445;33;33238;-80
2024/02/12 11:29:20;;;;;;;0.70;0.70;;;;;;;13.10;58.75;98510.13;4221217;33;32800;-81
2024/02/12 11:31:48;;;;;;;0.30;0.30;;;;;;;13.06;59.00;98502.41;4223191;33;32989;-80
2024/02/12 11:34:20;;;;;;;3.47;0.43;;;;;;;13.21;58.50;98503.06;4210876;33;34211;-81
2024/02/12 11:36:59;;;;;;;0.10;0.10;;;;;;;12.92;59.22;98502.59;4213560;33;33805;-80
2024/02/12 11:39:28;;;;;;;0.30;0.30;;;;;;;13.21;58.52;98497.78;4187809;33;33061;-80
2024/02/12 11:42:00;;;;;;;0.37;0.37;;;;;;;13.03;59.25;98494.69;4228425;33;34619;-81
2024/02/12 11:44:28;;;;;;;0.00;0.00;;;;;;;12.94;60.07;98499.81;4201755;33;33677;-80
2024/02/12 11:46:59;;;;;;;0.25;0.25;;;;;;;13.17;58.64;98495.47;4199859;33;33743;-80
2024/02/12 11:49:27;;;;;;;0.00;0.00;;;;;;;13.26;59.26;98495.66;4213858;33;32022;-81
2024/02/12 11:51:55;;;;;;;0.40;0.40;;;;;;;12.97;59.60;98495.16;4212018;33;33812;-81
2024/02/12 11:54:26;;;;;;;4.15;1.02;;;;;;;13.15;59.19;98498.25;4223005;33;34141;-81
2024/02/12 11:56:54;;;;;;;0.47;0.47;;;;;;;13.19;59.02;98488.22;4199920;33;32844;-81
2024/02/12 11:59:23;;;;;;;1.08;0.98;;;;;;;13.17;59.63;98485.69;4227779;33;34074;-81
2024/02/12 12:01:51;;;;;;;0.45;0.10;;;;;;;13.37;58.46;98486.03;4202951;33;34122;-81
2024/02/12 12:04:19;;;;;;;0.15;0.03;;;;;;;13.30;59.63;98486.50;4234250;33;33961;-81
2024/02/12 12:06:46;;;;;;;0.45;0.45;;;;;;;13.42;58.86;98490.00;4201750;33;33066;-81
2024/02/12 12:09:21;;;;;;;1.37;0.73;;;;;;;13.80;57.47;98483.56;4199612;33;34038;-81